Pittsburg, Texas
Current Conditions -  °F | °C
As of 4:35 PM on Monday 22 Dec 2014 (Local Time) from KOSA Reporting Station
Clear Clear  
Wind Chill: 65°   Ceiling: Unl
Heat Index: 65°   Visibility: 10mi
Dew Point: 47°   Wind: 9mph
Humidity: 50%   Direction: 250°WSW
Pressure: 29.58"   Gusts: NA
Location:  33°N, 94.97°W
Report Text: KOSA 222235Z AUTO 25008KT 10SM CLR 19/08 A2958 RMK AO1 T01860081
Loading
Personal Weather Stations






























Interactive Weather Map New forecast layout! Learn more

10-Day Weather Forecast

Advertisements
Track Severe Weather on mobile